createdAt,value
2023-02-02T00:01:50.263Z,96877.56
2023-02-02T00:04:22.195Z,96870.44
2023-02-02T00:06:49.418Z,96865.28
2023-02-02T00:09:18.805Z,96867.94
2023-02-02T00:11:48.276Z,96864.56
2023-02-02T00:14:15.359Z,96867.84
2023-02-02T00:16:48.857Z,96848.00
2023-02-02T00:19:22.907Z,96849.53
2023-02-02T00:21:49.892Z,96850.06
2023-02-02T00:24:20.767Z,96850.69
2023-02-02T00:26:54.221Z,96838.84
2023-02-02T00:29:30.945Z,96840.72
2023-02-02T00:31:58.029Z,96844.00
2023-02-02T00:34:25.346Z,96838.59
2023-02-02T00:36:52.449Z,96827.34
2023-02-02T00:39:22.784Z,96836.63
2023-02-02T00:41:49.718Z,96824.28
2023-02-02T00:44:34.973Z,96829.81
2023-02-02T00:47:02.544Z,96828.50
2023-02-02T00:49:29.545Z,96826.63
2023-02-02T00:51:56.384Z,96826.63
2023-02-02T00:54:23.270Z,96819.75
2023-02-02T00:56:50.152Z,96823.97
2023-02-02T00:59:16.984Z,96823.66
2023-02-02T01:01:43.837Z,96821.22
2023-02-02T01:04:18.449Z,96836.25
2023-02-02T01:06:45.221Z,96834.09
2023-02-02T01:09:13.409Z,96818.16
2023-02-02T01:11:40.294Z,96835.56
2023-02-02T01:14:07.150Z,96821.66
2023-02-02T01:16:34.214Z,96823.16
2023-02-02T01:19:01.127Z,96833.63
2023-02-02T01:21:28.060Z,96830.34
2023-02-02T01:23:54.865Z,96824.00
2023-02-02T01:26:21.768Z,96816.38
2023-02-02T01:28:48.668Z,96814.91
2023-02-02T01:31:18.735Z,96822.69
2023-02-02T01:33:47.586Z,96810.13
2023-02-02T01:36:18.611Z,96818.19
2023-02-02T01:38:46.326Z,96822.75
2023-02-02T01:41:17.801Z,96804.06
2023-02-02T01:43:44.489Z,96810.72
2023-02-02T01:46:36.261Z,96805.50
2023-02-02T01:49:09.165Z,96796.81
2023-02-02T01:51:48.381Z,96795.97
2023-02-02T01:54:36.281Z,96793.44
2023-02-02T01:57:11.794Z,96791.41
2023-02-02T01:59:39.185Z,96792.91
2023-02-02T02:02:06.643Z,96784.31
2023-02-02T02:04:34.451Z,96780.84
2023-02-02T02:07:02.890Z,96795.50
2023-02-02T02:09:29.740Z,96780.91
2023-02-02T02:11:56.892Z,96776.50
2023-02-02T02:14:42.762Z,96792.53
2023-02-02T02:17:37.832Z,96789.34
2023-02-02T02:20:32.207Z,96800.22
2023-02-02T02:23:33.607Z,96802.06
2023-02-02T02:26:43.563Z,96803.19
2023-02-02T02:29:25.312Z,96799.56
2023-02-02T02:32:13.254Z,96809.09
2023-02-02T02:35:02.154Z,96799.69
2023-02-02T02:37:30.560Z,96783.53
2023-02-02T02:40:13.948Z,96805.59
2023-02-02T02:42:47.199Z,96812.94
2023-02-02T02:45:14.868Z,96797.81
2023-02-02T02:47:42.652Z,96792.69
2023-02-02T02:50:10.900Z,96795.69
2023-02-02T02:52:38.479Z,96791.41
2023-02-02T02:55:07.495Z,96787.00
2023-02-02T02:57:43.469Z,96798.03
2023-02-02T03:00:27.681Z,96800.81
2023-02-02T03:03:41.934Z,96779.84
2023-02-02T03:06:17.894Z,96820.53
2023-02-02T03:08:52.956Z,96798.50
2023-02-02T03:11:20.853Z,96807.03
2023-02-02T03:13:48.804Z,96796.72
2023-02-02T03:16:16.466Z,96812.94
2023-02-02T03:18:43.620Z,96810.72
2023-02-02T03:21:10.540Z,96805.50
2023-02-02T03:23:38.590Z,96809.28
2023-02-02T03:26:05.886Z,96813.25
2023-02-02T03:28:33.096Z,96800.78
2023-02-02T03:31:03.976Z,96803.47
2023-02-02T03:33:33.403Z,96815.13
2023-02-02T03:36:00.260Z,96815.44
2023-02-02T03:38:27.132Z,96811.94
2023-02-02T03:40:53.999Z,96810.81
2023-02-02T03:43:24.943Z,96811.00
2023-02-02T03:46:01.137Z,96815.22
2023-02-02T03:48:28.510Z,96805.81
2023-02-02T03:50:55.447Z,96801.63
2023-02-02T03:53:23.250Z,96798.47
2023-02-02T03:55:50.097Z,96795.94
2023-02-02T03:58:17.613Z,96792.75
2023-02-02T04:00:44.497Z,96802.19
2023-02-02T04:03:11.322Z,96801.06
2023-02-02T04:05:38.151Z,96796.25
2023-02-02T04:08:05.314Z,96794.69
2023-02-02T04:10:32.158Z,96811.34
2023-02-02T04:12:59.052Z,96802.63
2023-02-02T04:15:26.182Z,96802.75
2023-02-02T04:17:53.279Z,96804.16
2023-02-02T04:20:20.218Z,96808.47
2023-02-02T04:22:46.999Z,96805.69
2023-02-02T04:25:13.915Z,96808.19
2023-02-02T04:27:40.767Z,96811.63
2023-02-02T04:30:08.983Z,96813.97
2023-02-02T04:32:35.853Z,96821.53
2023-02-02T04:35:02.670Z,96830.25
2023-02-02T04:37:32.241Z,96822.25
2023-02-02T04:39:59.175Z,96813.66
2023-02-02T04:42:26.095Z,96820.34
2023-02-02T04:44:52.928Z,96806.63
2023-02-02T04:47:19.793Z,96801.13
2023-02-02T04:49:46.650Z,96813.97
2023-02-02T04:52:13.588Z,96814.38
2023-02-02T04:54:40.452Z,96809.50
2023-02-02T04:57:07.336Z,96815.81
2023-02-02T04:59:34.187Z,96812.56
2023-02-02T05:02:02.452Z,96831.34
2023-02-02T05:04:29.381Z,96826.25
2023-02-02T05:06:56.481Z,96824.94
2023-02-02T05:09:23.379Z,96830.75
2023-02-02T05:11:50.195Z,96835.16
2023-02-02T05:14:18.468Z,96829.81
2023-02-02T05:16:45.568Z,96828.72
2023-02-02T05:19:12.907Z,96831.97
2023-02-02T05:21:39.734Z,96830.97
2023-02-02T05:24:06.836Z,96840.78
2023-02-02T05:26:33.784Z,96834.13
2023-02-02T05:29:00.592Z,96833.94
2023-02-02T05:31:27.515Z,96835.97
2023-02-02T05:33:54.495Z,96832.13
2023-02-02T05:36:21.365Z,96814.38
2023-02-02T05:38:48.247Z,96841.19
2023-02-02T05:41:15.075Z,96826.84
2023-02-02T05:43:41.982Z,96829.81
2023-02-02T05:46:08.936Z,96826.84
2023-02-02T05:48:35.791Z,96820.31
2023-02-02T05:51:06.923Z,96829.13
2023-02-02T05:53:33.735Z,96832.06
2023-02-02T05:56:00.585Z,96833.94
2023-02-02T05:58:29.595Z,96835.06
2023-02-02T06:00:56.920Z,96839.25
2023-02-02T06:03:24.417Z,96836.81
2023-02-02T06:05:51.352Z,96842.50
2023-02-02T06:08:18.144Z,96844.06
2023-02-02T06:10:45.365Z,96838.59
2023-02-02T06:13:12.293Z,96848.13
2023-02-02T06:15:39.184Z,96839.75
2023-02-02T06:18:08.257Z,96838.41
2023-02-02T06:20:35.946Z,96850.69
2023-02-02T06:23:02.977Z,96836.13
2023-02-02T06:25:29.824Z,96844.78
2023-02-02T06:27:58.546Z,96851.69
2023-02-02T06:30:25.927Z,96850.59
2023-02-02T06:32:53.009Z,96859.66
2023-02-02T06:35:20.159Z,96857.66
2023-02-02T06:37:47.085Z,96855.66
2023-02-02T06:40:13.970Z,96863.19
2023-02-02T06:42:41.050Z,96857.00
2023-02-02T06:45:08.687Z,96868.13
2023-02-02T06:47:35.523Z,96857.34
2023-02-02T06:50:02.677Z,96877.16
2023-02-02T06:52:29.623Z,96868.31
2023-02-02T06:54:56.490Z,96874.13
2023-02-02T06:57:23.309Z,96882.25
2023-02-02T06:59:51.194Z,96889.59
2023-02-02T07:02:18.076Z,96881.28
2023-02-02T07:04:44.923Z,96884.25
2023-02-02T07:07:11.705Z,96884.50
2023-02-02T07:09:38.587Z,96878.25
2023-02-02T07:12:05.986Z,96883.69
2023-02-02T07:14:32.872Z,96892.63
2023-02-02T07:16:59.652Z,96896.94
2023-02-02T07:19:26.635Z,96901.25
2023-02-02T07:21:53.450Z,96905.84
2023-02-02T07:24:20.285Z,96905.91
2023-02-02T07:26:47.139Z,96906.47
2023-02-02T07:29:14.411Z,96921.69
2023-02-02T07:31:41.793Z,96914.03
2023-02-02T07:34:08.823Z,96913.41
2023-02-02T07:36:36.265Z,96921.56
2023-02-02T07:39:05.088Z,96909.72
2023-02-02T07:41:34.743Z,96922.81
2023-02-02T07:44:01.854Z,96924.50
2023-02-02T07:46:28.690Z,96918.47
2023-02-02T07:48:56.466Z,96922.72
2023-02-02T07:51:24.870Z,96899.88
2023-02-02T07:53:54.431Z,96930.50
2023-02-02T07:56:25.026Z,96940.09
2023-02-02T07:58:53.775Z,96933.53
2023-02-02T08:01:23.027Z,96934.75
2023-02-02T08:03:50.857Z,96931.72
2023-02-02T08:06:26.106Z,96943.47
2023-02-02T08:08:53.121Z,96936.94
2023-02-02T08:11:22.499Z,96942.03
2023-02-02T08:13:52.065Z,96948.91
2023-02-02T08:16:19.749Z,96944.38
2023-02-02T08:18:47.192Z,96943.78
2023-02-02T08:21:14.691Z,96956.66
2023-02-02T08:23:42.762Z,96959.03
2023-02-02T08:26:14.224Z,96958.44
2023-02-02T08:28:43.075Z,96957.09
2023-02-02T08:31:17.999Z,96949.56
2023-02-02T08:33:45.367Z,96963.88
2023-02-02T08:36:18.093Z,96955.22
2023-02-02T08:38:45.825Z,96962.03
2023-02-02T08:41:16.973Z,96954.19
2023-02-02T08:43:44.404Z,96957.56
2023-02-02T08:46:14.898Z,96962.84
2023-02-02T08:48:42.378Z,96959.59
2023-02-02T08:51:12.702Z,96949.78
2023-02-02T08:53:39.516Z,96953.41
2023-02-02T08:56:19.948Z,96958.41
2023-02-02T08:58:52.442Z,96963.03
2023-02-02T09:01:29.136Z,96954.31
2023-02-02T09:04:04.519Z,96956.66
2023-02-02T09:06:39.335Z,96959.31
2023-02-02T09:09:09.806Z,96977.78
2023-02-02T09:11:37.445Z,96974.50
2023-02-02T09:14:06.421Z,96979.88
2023-02-02T09:16:35.132Z,96982.28
2023-02-02T09:19:02.395Z,96967.88
2023-02-02T09:21:29.300Z,96970.84
2023-02-02T09:23:56.325Z,96971.41
2023-02-02T09:26:30.213Z,96980.19
2023-02-02T09:29:02.482Z,96980.59
2023-02-02T09:31:33.893Z,96986.22
2023-02-02T09:34:06.851Z,96985.56
2023-02-02T09:36:34.613Z,96979.94
2023-02-02T09:39:01.716Z,96988.09
2023-02-02T09:41:43.258Z,96986.66
2023-02-02T09:44:19.095Z,96987.34
2023-02-02T09:47:45.870Z,97004.94
2023-02-02T09:50:33.255Z,96994.75
2023-02-02T09:53:14.184Z,96996.88
2023-02-02T09:55:45.557Z,96999.50
2023-02-02T09:58:19.655Z,96991.63
2023-02-02T10:01:13.553Z,96994.75
2023-02-02T10:04:14.330Z,97004.28
2023-02-02T10:06:44.975Z,97005.84
2023-02-02T10:09:33.243Z,96993.94
2023-02-02T10:12:43.616Z,96997.19
2023-02-02T10:15:17.830Z,96991.38
2023-02-02T10:17:50.768Z,96992.97
2023-02-02T10:20:46.306Z,97000.25
2023-02-02T10:23:27.532Z,97003.28
2023-02-02T10:26:00.069Z,97003.19
2023-02-02T10:28:45.263Z,96996.88
2023-02-02T10:31:28.491Z,96991.16
2023-02-02T10:34:20.928Z,96990.03
2023-02-02T10:37:00.183Z,96996.09
2023-02-02T10:40:32.397Z,96997.16
2023-02-02T10:43:47.226Z,96989.16
2023-02-02T10:46:25.041Z,96989.53
2023-02-02T10:49:35.914Z,96991.88
2023-02-02T10:52:12.002Z,96999.91
2023-02-02T10:54:58.407Z,96997.97
2023-02-02T10:57:49.408Z,96997.72
2023-02-02T11:00:22.708Z,96983.97
2023-02-02T11:02:51.495Z,96997.66
2023-02-02T11:05:47.890Z,96979.63
2023-02-02T11:08:33.167Z,96988.88
2023-02-02T11:11:32.467Z,96995.88
2023-02-02T11:14:08.467Z,96985.56
2023-02-02T11:16:43.235Z,97003.38
2023-02-02T11:19:20.103Z,97001.88
2023-02-02T11:21:56.637Z,97007.91
2023-02-02T11:24:29.717Z,97009.44
2023-02-02T11:27:02.932Z,97015.44
2023-02-02T11:29:46.997Z,97005.75
2023-02-02T11:32:34.347Z,97002.22
2023-02-02T11:35:04.339Z,97010.59
2023-02-02T11:37:33.752Z,97016.81
2023-02-02T11:41:04.347Z,97005.84
2023-02-02T11:43:35.101Z,97016.50
2023-02-02T11:46:19.048Z,97013.59
2023-02-02T11:48:56.764Z,97004.78
2023-02-02T11:51:26.122Z,97012.31
2023-02-02T11:54:06.595Z,97003.13
2023-02-02T11:56:36.893Z,97012.56
2023-02-02T11:59:04.212Z,97010.88
2023-02-02T12:01:41.830Z,97005.69
2023-02-02T12:04:17.796Z,97004.59
2023-02-02T12:06:45.715Z,96995.75
2023-02-02T12:09:16.189Z,97000.53
2023-02-02T12:12:10.019Z,97000.16
2023-02-02T12:15:02.725Z,97002.19
2023-02-02T12:17:45.197Z,97006.72
2023-02-02T12:20:44.994Z,96998.69
2023-02-02T12:23:29.848Z,96990.09
2023-02-02T12:26:15.391Z,96992.28
2023-02-02T12:29:16.765Z,96995.16
2023-02-02T12:32:17.253Z,96984.28
2023-02-02T12:35:02.088Z,96989.16
2023-02-02T12:37:28.842Z,96990.47
2023-02-02T12:40:32.514Z,96995.94
2023-02-02T12:43:23.945Z,97000.47
2023-02-02T12:46:21.103Z,96998.78
2023-02-02T12:49:15.232Z,97001.94
2023-02-02T12:52:23.719Z,96991.56
2023-02-02T12:55:25.741Z,96999.84
2023-02-02T12:58:09.147Z,97005.66
2023-02-02T13:01:06.614Z,97003.91
2023-02-02T13:03:54.160Z,97019.63
2023-02-02T13:07:02.414Z,97010.28
2023-02-02T13:09:47.212Z,97015.59
2023-02-02T13:12:17.133Z,97018.25
2023-02-02T13:14:55.322Z,97023.00
2023-02-02T13:18:07.358Z,97028.50
2023-02-02T13:20:51.309Z,97025.50
2023-02-02T13:23:28.557Z,97020.34
2023-02-02T13:26:01.715Z,97020.78
2023-02-02T13:28:37.252Z,97025.53
2023-02-02T13:31:14.671Z,97034.06
2023-02-02T13:33:44.719Z,97036.22
2023-02-02T13:36:25.886Z,97040.75
2023-02-02T13:39:08.187Z,97046.16
2023-02-02T13:41:37.064Z,97050.16
2023-02-02T13:44:15.051Z,97044.53
2023-02-02T13:47:20.029Z,97057.03
2023-02-02T13:49:54.015Z,97047.56
2023-02-02T13:53:17.122Z,97058.72
2023-02-02T13:56:02.630Z,97042.34
2023-02-02T13:59:04.887Z,97049.59
2023-02-02T14:01:32.595Z,97056.69
2023-02-02T14:04:00.871Z,97060.56
2023-02-02T14:06:30.841Z,97059.78
2023-02-02T14:09:02.310Z,97054.94
2023-02-02T14:11:39.152Z,97070.84
2023-02-02T14:14:35.277Z,97077.50
2023-02-02T14:17:34.273Z,97076.28
2023-02-02T14:20:03.752Z,97086.31
2023-02-02T14:22:48.298Z,97084.59
2023-02-02T14:25:33.362Z,97080.25
2023-02-02T14:28:03.834Z,97090.28
2023-02-02T14:30:35.072Z,97080.75
2023-02-02T14:33:20.644Z,97086.31
2023-02-02T14:35:47.371Z,97078.97
2023-02-02T14:38:52.859Z,97096.28
2023-02-02T14:42:20.164Z,97087.75
2023-02-02T14:45:12.702Z,97088.66
2023-02-02T14:47:42.404Z,97089.88
2023-02-02T14:50:27.103Z,97091.88
2023-02-02T14:53:11.883Z,97084.94
2023-02-02T14:55:58.731Z,97088.09
2023-02-02T14:58:48.702Z,97092.22
2023-02-02T15:01:22.898Z,97099.59
2023-02-02T15:04:20.793Z,97100.19
2023-02-02T15:06:52.485Z,97104.50
2023-02-02T15:09:28.384Z,97104.72
2023-02-02T15:12:06.573Z,97116.88
2023-02-02T15:14:38.165Z,97118.47
2023-02-02T15:18:08.044Z,97120.88
2023-02-02T15:20:48.835Z,97130.38
2023-02-02T15:23:31.629Z,97122.66
2023-02-02T15:26:17.722Z,97138.47
2023-02-02T15:28:54.848Z,97133.72
2023-02-02T15:31:34.889Z,97141.00
2023-02-02T15:34:10.079Z,97137.00
2023-02-02T15:36:43.769Z,97130.50
2023-02-02T15:39:41.729Z,97136.88
2023-02-02T15:42:37.432Z,97144.88
2023-02-02T15:45:05.771Z,97151.75
2023-02-02T15:47:37.145Z,97148.59
2023-02-02T15:50:20.607Z,97149.28
2023-02-02T15:52:50.473Z,97165.09
2023-02-02T15:55:34.968Z,97163.16
2023-02-02T15:58:03.158Z,97169.28
2023-02-02T16:00:38.069Z,97170.75
2023-02-02T16:03:10.521Z,97181.50
2023-02-02T16:05:37.249Z,97184.03
2023-02-02T16:08:27.746Z,97181.78
2023-02-02T16:11:11.072Z,97199.16
2023-02-02T16:13:40.262Z,97187.69
2023-02-02T16:16:41.133Z,97191.34
2023-02-02T16:19:22.777Z,97194.47
2023-02-02T16:22:06.349Z,97201.94
2023-02-02T16:24:49.346Z,97196.25
2023-02-02T16:27:23.407Z,97213.94
2023-02-02T16:29:51.137Z,97217.75
2023-02-02T16:32:40.165Z,97223.56
2023-02-02T16:35:35.686Z,97223.88
2023-02-02T16:38:36.237Z,97233.41
2023-02-02T16:41:25.411Z,97229.47
2023-02-02T16:43:54.694Z,97231.13
2023-02-02T16:46:46.155Z,97242.97
2023-02-02T16:49:22.408Z,97252.09
2023-02-02T16:52:16.404Z,97255.66
2023-02-02T16:54:52.759Z,97255.34
2023-02-02T16:57:34.319Z,97255.94
2023-02-02T17:00:07.003Z,97264.47
2023-02-02T17:02:38.932Z,97267.09
2023-02-02T17:05:06.126Z,97277.22
2023-02-02T17:07:35.934Z,97279.53
2023-02-02T17:10:17.126Z,97276.19
2023-02-02T17:12:45.894Z,97269.97
2023-02-02T17:15:18.812Z,97289.44
2023-02-02T17:17:50.389Z,97279.69
2023-02-02T17:20:18.780Z,97293.84
2023-02-02T17:22:53.344Z,97287.16
2023-02-02T17:25:28.945Z,97298.41
2023-02-02T17:27:58.568Z,97292.09
2023-02-02T17:30:26.413Z,97290.28
2023-02-02T17:32:53.245Z,97289.91
2023-02-02T17:35:27.081Z,97287.06
2023-02-02T17:37:55.326Z,97285.50
2023-02-02T17:40:24.229Z,97298.59
2023-02-02T17:42:53.393Z,97299.63
2023-02-02T17:45:33.937Z,97304.94
2023-02-02T17:48:03.654Z,97301.13
2023-02-02T17:50:32.711Z,97310.28
2023-02-02T17:53:00.149Z,97320.88
2023-02-02T17:55:36.102Z,97314.31
2023-02-02T17:58:03.738Z,97322.31
2023-02-02T18:00:31.608Z,97323.72
2023-02-02T18:03:26.041Z,97323.72
2023-02-02T18:05:53.151Z,97335.28
2023-02-02T18:08:20.228Z,97343.75
2023-02-02T18:10:47.138Z,97343.16
2023-02-02T18:13:16.321Z,97344.78
2023-02-02T18:15:43.966Z,97335.22
2023-02-02T18:18:13.949Z,97347.91
2023-02-02T18:20:45.689Z,97354.94
2023-02-02T18:23:13.490Z,97349.25
2023-02-02T18:25:40.547Z,97360.56
2023-02-02T18:28:09.116Z,97349.78
2023-02-02T18:30:39.005Z,97363.00
2023-02-02T18:33:09.140Z,97362.44
2023-02-02T18:35:41.463Z,97367.44
2023-02-02T18:38:09.132Z,97378.66
2023-02-02T18:40:36.196Z,97372.38
2023-02-02T18:43:03.135Z,97367.38
2023-02-02T18:45:30.117Z,97376.25
2023-02-02T18:47:57.215Z,97382.28
2023-02-02T18:50:24.375Z,97380.81
2023-02-02T18:52:51.279Z,97385.75
2023-02-02T18:55:18.202Z,97371.91
2023-02-02T18:57:45.023Z,97372.78
2023-02-02T19:00:12.702Z,97381.66
2023-02-02T19:02:39.618Z,97392.00
2023-02-02T19:05:26.758Z,97387.84
2023-02-02T19:07:57.085Z,97393.38
2023-02-02T19:10:26.984Z,97407.97
2023-02-02T19:12:58.043Z,97413.78
2023-02-02T19:15:26.780Z,97410.59
2023-02-02T19:17:55.119Z,97402.34
2023-02-02T19:20:30.422Z,97413.47
2023-02-02T19:23:16.293Z,97407.13
2023-02-02T19:25:50.763Z,97411.66
2023-02-02T19:28:31.507Z,97414.53
2023-02-02T19:31:02.325Z,97419.31
2023-02-02T19:33:42.164Z,97429.94
2023-02-02T19:36:14.348Z,97429.38
2023-02-02T19:38:41.285Z,97425.97
2023-02-02T19:41:25.756Z,97430.44
2023-02-02T19:43:58.869Z,97435.56
2023-02-02T19:46:27.959Z,97448.94
2023-02-02T19:49:07.579Z,97444.28
2023-02-02T19:51:52.576Z,97454.19
2023-02-02T19:54:31.197Z,97458.84
2023-02-02T19:57:11.466Z,97461.81
2023-02-02T19:59:38.462Z,97466.78
2023-02-02T20:02:52.301Z,97469.44
2023-02-02T20:05:24.326Z,97479.16
2023-02-02T20:08:24.845Z,97471.41
2023-02-02T20:10:54.583Z,97463.19
2023-02-02T20:13:47.715Z,97460.31
2023-02-02T20:16:23.625Z,97452.38
2023-02-02T20:18:55.664Z,97449.75
2023-02-02T20:21:45.404Z,97439.94
2023-02-02T20:24:19.442Z,97454.47
2023-02-02T20:26:46.570Z,97453.22
2023-02-02T20:29:28.187Z,97451.16
2023-02-02T20:31:58.564Z,97453.38
2023-02-02T20:34:33.749Z,97461.66
2023-02-02T20:37:16.292Z,97464.06
2023-02-02T20:39:55.708Z,97457.97
2023-02-02T20:42:23.188Z,97463.56
2023-02-02T20:44:50.802Z,97476.44
2023-02-02T20:47:17.954Z,97478.13
2023-02-02T20:49:45.316Z,97480.56
2023-02-02T20:52:23.082Z,97463.88
2023-02-02T20:54:51.479Z,97481.47
2023-02-02T20:57:19.040Z,97481.66
2023-02-02T20:59:45.910Z,97492.81
2023-02-02T21:02:19.289Z,97495.22
2023-02-02T21:04:48.645Z,97499.75
2023-02-02T21:07:18.481Z,97500.31
2023-02-02T21:09:48.194Z,97512.00
2023-02-02T21:12:16.382Z,97511.31
2023-02-02T21:14:45.089Z,97505.84
2023-02-02T21:17:15.726Z,97504.84
2023-02-02T21:19:43.765Z,97508.59
2023-02-02T21:22:11.617Z,97500.06
2023-02-02T21:24:38.681Z,97500.63
2023-02-02T21:27:05.578Z,97492.94
2023-02-02T21:29:33.215Z,97499.75
2023-02-02T21:32:02.455Z,97498.09
2023-02-02T21:34:31.006Z,97510.72
2023-02-02T21:36:58.812Z,97508.03
2023-02-02T21:39:37.371Z,97511.78
2023-02-02T21:42:19.398Z,97494.47
2023-02-02T21:44:56.205Z,97494.53
2023-02-02T21:47:27.670Z,97507.66
2023-02-02T21:50:15.189Z,97513.78
2023-02-02T21:52:42.416Z,97513.50
2023-02-02T21:55:35.887Z,97522.59
2023-02-02T21:58:34.143Z,97520.00
2023-02-02T22:01:28.778Z,97516.16
2023-02-02T22:03:55.683Z,97528.81
2023-02-02T22:06:35.128Z,97533.94
2023-02-02T22:09:18.631Z,97530.25
2023-02-02T22:11:54.942Z,97533.25
2023-02-02T22:14:36.108Z,97534.66
2023-02-02T22:17:14.222Z,97532.81
2023-02-02T22:19:43.647Z,97548.94
2023-02-02T22:22:18.455Z,97542.25
2023-02-02T22:24:50.991Z,97543.81
2023-02-02T22:27:23.728Z,97547.59
2023-02-02T22:29:58.534Z,97538.47
2023-02-02T22:32:25.452Z,97546.59
2023-02-02T22:34:52.419Z,97549.88
2023-02-02T22:37:19.275Z,97542.75
2023-02-02T22:39:46.109Z,97543.91
2023-02-02T22:42:12.980Z,97554.84
2023-02-02T22:44:39.837Z,97547.28
2023-02-02T22:47:06.821Z,97553.84
2023-02-02T22:49:33.633Z,97554.41
2023-02-02T22:52:00.497Z,97557.06
2023-02-02T22:54:27.419Z,97547.03
2023-02-02T22:56:54.241Z,97556.41
2023-02-02T22:59:21.067Z,97549.63
2023-02-02T23:01:47.908Z,97554.91
2023-02-02T23:04:15.014Z,97555.28
2023-02-02T23:06:42.152Z,97556.41
2023-02-02T23:09:09.036Z,97561.38
2023-02-02T23:11:35.858Z,97561.63
2023-02-02T23:14:02.838Z,97562.47
2023-02-02T23:16:29.771Z,97567.13
2023-02-02T23:18:56.671Z,97567.25
2023-02-02T23:21:23.500Z,97563.00
2023-02-02T23:23:50.408Z,97554.50
2023-02-02T23:26:17.311Z,97555.88
2023-02-02T23:28:44.164Z,97560.25
2023-02-02T23:31:11.086Z,97560.78
2023-02-02T23:33:37.976Z,97560.38
2023-02-02T23:36:05.285Z,97559.06
2023-02-02T23:38:32.107Z,97554.41
2023-02-02T23:41:00.340Z,97557.78
2023-02-02T23:43:27.672Z,97553.94
2023-02-02T23:45:55.187Z,97549.19
2023-02-02T23:48:22.025Z,97551.47
2023-02-02T23:50:48.906Z,97555.97
2023-02-02T23:53:15.985Z,97557.59
2023-02-02T23:55:45.624Z,97559.41
2023-02-02T23:58:14.535Z,97557.50
